sensor_id;sensor_type;location;lat;lon;timestamp;P1;durP1;ratioP1;P2;durP2;ratioP2
3700;SDS011;1866;48.374;10.766;2023-01-15T00:01:42;99.10;;;5.13;;
3700;SDS011;1866;48.374;10.766;2023-01-15T00:04:10;98.27;;;5.20;;
3700;SDS011;1866;48.374;10.766;2023-01-15T00:06:37;100.17;;;5.30;;
3700;SDS011;1866;48.374;10.766;2023-01-15T00:09:07;98.70;;;5.30;;
3700;SDS011;1866;48.374;10.766;2023-01-15T00:11:38;99.20;;;5.63;;
3700;SDS011;1866;48.374;10.766;2023-01-15T00:14:05;98.87;;;5.20;;
3700;SDS011;1866;48.374;10.766;2023-01-15T00:16:32;98.50;;;5.27;;
3700;SDS011;1866;48.374;10.766;2023-01-15T00:19:00;98.90;;;5.40;;
3700;SDS011;1866;48.374;10.766;2023-01-15T00:21:28;98.57;;;5.40;;
3700;SDS011;1866;48.374;10.766;2023-01-15T00:23:55;98.80;;;5.57;;
3700;SDS011;1866;48.374;10.766;2023-01-15T00:26:40;98.27;;;5.20;;
3700;SDS011;1866;48.374;10.766;2023-01-15T00:29:24;99.20;;;5.30;;
3700;SDS011;1866;48.374;10.766;2023-01-15T00:31:52;101.17;;;5.30;;
3700;SDS011;1866;48.374;10.766;2023-01-15T00:34:23;98.90;;;5.47;;
3700;SDS011;1866;48.374;10.766;2023-01-15T00:36:50;99.13;;;5.20;;
3700;SDS011;1866;48.374;10.766;2023-01-15T00:39:18;99.87;;;5.20;;
3700;SDS011;1866;48.374;10.766;2023-01-15T00:41:45;98.20;;;5.07;;
3700;SDS011;1866;48.374;10.766;2023-01-15T00:44:12;99.10;;;5.40;;
3700;SDS011;1866;48.374;10.766;2023-01-15T00:46:39;98.50;;;5.23;;
3700;SDS011;1866;48.374;10.766;2023-01-15T00:49:06;98.50;;;5.20;;
3700;SDS011;1866;48.374;10.766;2023-01-15T00:51:34;98.50;;;5.33;;
3700;SDS011;1866;48.374;10.766;2023-01-15T00:54:01;100.07;;;5.40;;
3700;SDS011;1866;48.374;10.766;2023-01-15T00:56:28;99.90;;;5.37;;
3700;SDS011;1866;48.374;10.766;2023-01-15T00:58:55;99.17;;;5.23;;
3700;SDS011;1866;48.374;10.766;2023-01-15T01:01:24;98.50;;;5.17;;
3700;SDS011;1866;48.374;10.766;2023-01-15T01:03:51;100.00;;;5.57;;
3700;SDS011;1866;48.374;10.766;2023-01-15T01:06:18;98.87;;;5.17;;
3700;SDS011;1866;48.374;10.766;2023-01-15T01:08:47;98.37;;;5.37;;
3700;SDS011;1866;48.374;10.766;2023-01-15T01:11:15;98.20;;;5.07;;
3700;SDS011;1866;48.374;10.766;2023-01-15T01:13:43;98.70;;;5.13;;
3700;SDS011;1866;48.374;10.766;2023-01-15T01:16:20;100.57;;;5.63;;
3700;SDS011;1866;48.374;10.766;2023-01-15T01:18:49;98.77;;;5.50;;
3700;SDS011;1866;48.374;10.766;2023-01-15T01:21:17;99.00;;;5.30;;
3700;SDS011;1866;48.374;10.766;2023-01-15T01:23:44;98.47;;;5.27;;
3700;SDS011;1866;48.374;10.766;2023-01-15T01:26:12;99.53;;;5.50;;
3700;SDS011;1866;48.374;10.766;2023-01-15T01:28:39;98.50;;;5.30;;
3700;SDS011;1866;48.374;10.766;2023-01-15T01:31:06;98.67;;;5.37;;
3700;SDS011;1866;48.374;10.766;2023-01-15T01:33:35;99.53;;;5.27;;
3700;SDS011;1866;48.374;10.766;2023-01-15T01:36:02;98.30;;;5.23;;
3700;SDS011;1866;48.374;10.766;2023-01-15T01:38:29;98.47;;;5.10;;
3700;SDS011;1866;48.374;10.766;2023-01-15T01:40:56;98.30;;;4.97;;
3700;SDS011;1866;48.374;10.766;2023-01-15T01:43:24;98.73;;;5.20;;
3700;SDS011;1866;48.374;10.766;2023-01-15T01:45:53;98.30;;;5.07;;
3700;SDS011;1866;48.374;10.766;2023-01-15T01:48:22;98.73;;;5.10;;
3700;SDS011;1866;48.374;10.766;2023-01-15T01:50:54;98.30;;;5.10;;
3700;SDS011;1866;48.374;10.766;2023-01-15T01:53:26;98.30;;;5.30;;
3700;SDS011;1866;48.374;10.766;2023-01-15T01:55:56;98.17;;;5.10;;
3700;SDS011;1866;48.374;10.766;2023-01-15T01:58:26;99.07;;;5.17;;
3700;SDS011;1866;48.374;10.766;2023-01-15T02:00:55;97.97;;;5.17;;
3700;SDS011;1866;48.374;10.766;2023-01-15T02:03:22;98.47;;;5.03;;
3700;SDS011;1866;48.374;10.766;2023-01-15T02:05:57;97.70;;;4.90;;
3700;SDS011;1866;48.374;10.766;2023-01-15T02:08:26;98.37;;;5.20;;
3700;SDS011;1866;48.374;10.766;2023-01-15T02:10:54;99.37;;;5.30;;
3700;SDS011;1866;48.374;10.766;2023-01-15T02:13:25;98.67;;;5.53;;
3700;SDS011;1866;48.374;10.766;2023-01-15T02:15:59;98.67;;;5.27;;
3700;SDS011;1866;48.374;10.766;2023-01-15T02:18:33;98.10;;;5.00;;
3700;SDS011;1866;48.374;10.766;2023-01-15T02:21:05;98.27;;;5.17;;
3700;SDS011;1866;48.374;10.766;2023-01-15T02:23:52;98.90;;;5.20;;
3700;SDS011;1866;48.374;10.766;2023-01-15T02:26:43;98.90;;;5.20;;
3700;SDS011;1866;48.374;10.766;2023-01-15T02:29:30;98.83;;;5.13;;
3700;SDS011;1866;48.374;10.766;2023-01-15T02:32:06;97.77;;;5.03;;
3700;SDS011;1866;48.374;10.766;2023-01-15T02:34:36;98.07;;;5.10;;
3700;SDS011;1866;48.374;10.766;2023-01-15T02:37:09;97.97;;;4.93;;
3700;SDS011;1866;48.374;10.766;2023-01-15T02:39:41;98.37;;;5.20;;
3700;SDS011;1866;48.374;10.766;2023-01-15T02:42:12;110.50;;;10.43;;
3700;SDS011;1866;48.374;10.766;2023-01-15T02:44:43;101.37;;;6.27;;
3700;SDS011;1866;48.374;10.766;2023-01-15T02:47:13;131.13;;;16.47;;
3700;SDS011;1866;48.374;10.766;2023-01-15T02:49:42;116.53;;;9.70;;
3700;SDS011;1866;48.374;10.766;2023-01-15T02:52:12;102.13;;;6.57;;
3700;SDS011;1866;48.374;10.766;2023-01-15T02:54:44;98.40;;;5.40;;
3700;SDS011;1866;48.374;10.766;2023-01-15T02:57:16;98.77;;;5.17;;
3700;SDS011;1866;48.374;10.766;2023-01-15T02:59:46;98.30;;;5.47;;
3700;SDS011;1866;48.374;10.766;2023-01-15T03:02:14;97.60;;;5.30;;
3700;SDS011;1866;48.374;10.766;2023-01-15T03:04:46;97.80;;;5.47;;
3700;SDS011;1866;48.374;10.766;2023-01-15T03:07:18;99.00;;;6.00;;
3700;SDS011;1866;48.374;10.766;2023-01-15T03:09:49;98.17;;;5.80;;
3700;SDS011;1866;48.374;10.766;2023-01-15T03:12:20;98.57;;;5.87;;
3700;SDS011;1866;48.374;10.766;2023-01-15T03:14:53;101.00;;;5.70;;
3700;SDS011;1866;48.374;10.766;2023-01-15T03:17:31;98.23;;;5.70;;
3700;SDS011;1866;48.374;10.766;2023-01-15T03:20:02;98.20;;;5.37;;
3700;SDS011;1866;48.374;10.766;2023-01-15T03:22:35;98.27;;;5.40;;
3700;SDS011;1866;48.374;10.766;2023-01-15T03:25:05;98.33;;;5.43;;
3700;SDS011;1866;48.374;10.766;2023-01-15T03:27:36;98.93;;;5.77;;
3700;SDS011;1866;48.374;10.766;2023-01-15T03:30:05;98.70;;;5.50;;
3700;SDS011;1866;48.374;10.766;2023-01-15T03:32:33;98.27;;;5.70;;
3700;SDS011;1866;48.374;10.766;2023-01-15T03:35:01;98.90;;;5.40;;
3700;SDS011;1866;48.374;10.766;2023-01-15T03:37:30;97.90;;;5.23;;
3700;SDS011;1866;48.374;10.766;2023-01-15T03:39:57;98.27;;;5.47;;
3700;SDS011;1866;48.374;10.766;2023-01-15T03:42:30;97.67;;;5.40;;
3700;SDS011;1866;48.374;10.766;2023-01-15T03:45:11;100.70;;;5.70;;
3700;SDS011;1866;48.374;10.766;2023-01-15T03:47:45;97.87;;;5.33;;
3700;SDS011;1866;48.374;10.766;2023-01-15T03:50:21;98.17;;;5.47;;
3700;SDS011;1866;48.374;10.766;2023-01-15T03:52:56;98.30;;;5.40;;
3700;SDS011;1866;48.374;10.766;2023-01-15T03:55:31;99.97;;;5.30;;
3700;SDS011;1866;48.374;10.766;2023-01-15T03:58:06;98.00;;;5.27;;
3700;SDS011;1866;48.374;10.766;2023-01-15T04:00:39;97.90;;;5.20;;
3700;SDS011;1866;48.374;10.766;2023-01-15T04:03:09;98.27;;;5.30;;
3700;SDS011;1866;48.374;10.766;2023-01-15T04:05:38;97.43;;;5.13;;
3700;SDS011;1866;48.374;10.766;2023-01-15T04:08:06;98.17;;;5.13;;
3700;SDS011;1866;48.374;10.766;2023-01-15T04:10:34;98.67;;;5.47;;
3700;SDS011;1866;48.374;10.766;2023-01-15T04:13:01;97.90;;;5.10;;
3700;SDS011;1866;48.374;10.766;2023-01-15T04:15:29;98.20;;;5.07;;
3700;SDS011;1866;48.374;10.766;2023-01-15T04:17:56;98.17;;;5.30;;
3700;SDS011;1866;48.374;10.766;2023-01-15T04:20:23;97.73;;;5.10;;
3700;SDS011;1866;48.374;10.766;2023-01-15T04:22:50;97.90;;;5.17;;
3700;SDS011;1866;48.374;10.766;2023-01-15T04:25:16;97.80;;;5.10;;
3700;SDS011;1866;48.374;10.766;2023-01-15T04:27:43;98.00;;;5.20;;
3700;SDS011;1866;48.374;10.766;2023-01-15T04:30:10;99.50;;;5.23;;
3700;SDS011;1866;48.374;10.766;2023-01-15T04:32:42;98.10;;;5.30;;
3700;SDS011;1866;48.374;10.766;2023-01-15T04:35:09;97.73;;;5.20;;
3700;SDS011;1866;48.374;10.766;2023-01-15T04:37:36;98.07;;;4.90;;
3700;SDS011;1866;48.374;10.766;2023-01-15T04:40:03;98.07;;;5.00;;
3700;SDS011;1866;48.374;10.766;2023-01-15T04:42:31;98.37;;;5.10;;
3700;SDS011;1866;48.374;10.766;2023-01-15T04:45:15;99.80;;;4.90;;
3700;SDS011;1866;48.374;10.766;2023-01-15T04:47:43;98.67;;;5.40;;
3700;SDS011;1866;48.374;10.766;2023-01-15T04:50:10;98.30;;;5.10;;
3700;SDS011;1866;48.374;10.766;2023-01-15T04:52:37;98.07;;;4.83;;
3700;SDS011;1866;48.374;10.766;2023-01-15T04:55:04;98.40;;;5.07;;
3700;SDS011;1866;48.374;10.766;2023-01-15T04:57:31;98.77;;;5.00;;
3700;SDS011;1866;48.374;10.766;2023-01-15T04:59:59;97.97;;;5.10;;
3700;SDS011;1866;48.374;10.766;2023-01-15T05:02:26;98.67;;;5.10;;
3700;SDS011;1866;48.374;10.766;2023-01-15T05:04:54;98.40;;;5.07;;
3700;SDS011;1866;48.374;10.766;2023-01-15T05:07:21;98.37;;;5.17;;
3700;SDS011;1866;48.374;10.766;2023-01-15T05:09:48;98.37;;;4.87;;
3700;SDS011;1866;48.374;10.766;2023-01-15T05:12:17;98.00;;;5.00;;
3700;SDS011;1866;48.374;10.766;2023-01-15T05:14:43;98.30;;;5.03;;
3700;SDS011;1866;48.374;10.766;2023-01-15T05:17:10;98.87;;;5.07;;
3700;SDS011;1866;48.374;10.766;2023-01-15T05:19:37;98.80;;;5.00;;
3700;SDS011;1866;48.374;10.766;2023-01-15T05:22:05;98.50;;;5.13;;
3700;SDS011;1866;48.374;10.766;2023-01-15T05:24:34;98.10;;;5.20;;
3700;SDS011;1866;48.374;10.766;2023-01-15T05:27:01;97.70;;;4.87;;
3700;SDS011;1866;48.374;10.766;2023-01-15T05:29:29;98.80;;;5.13;;
3700;SDS011;1866;48.374;10.766;2023-01-15T05:31:56;97.90;;;4.87;;
3700;SDS011;1866;48.374;10.766;2023-01-15T05:34:23;98.00;;;5.03;;
3700;SDS011;1866;48.374;10.766;2023-01-15T05:36:50;97.90;;;4.90;;
3700;SDS011;1866;48.374;10.766;2023-01-15T05:39:18;98.07;;;5.03;;
3700;SDS011;1866;48.374;10.766;2023-01-15T05:41:45;97.80;;;4.97;;
3700;SDS011;1866;48.374;10.766;2023-01-15T05:44:15;98.17;;;4.83;;
3700;SDS011;1866;48.374;10.766;2023-01-15T05:46:44;97.90;;;4.77;;
3700;SDS011;1866;48.374;10.766;2023-01-15T05:49:12;98.27;;;4.87;;
3700;SDS011;1866;48.374;10.766;2023-01-15T05:51:41;98.20;;;5.07;;
3700;SDS011;1866;48.374;10.766;2023-01-15T05:54:11;97.80;;;4.80;;
3700;SDS011;1866;48.374;10.766;2023-01-15T05:56:41;97.93;;;4.90;;
3700;SDS011;1866;48.374;10.766;2023-01-15T05:59:09;98.00;;;4.80;;
3700;SDS011;1866;48.374;10.766;2023-01-15T06:01:36;97.90;;;4.87;;
3700;SDS011;1866;48.374;10.766;2023-01-15T06:04:04;97.73;;;4.80;;
3700;SDS011;1866;48.374;10.766;2023-01-15T06:06:32;100.13;;;5.20;;
3700;SDS011;1866;48.374;10.766;2023-01-15T06:08:59;99.60;;;5.00;;
3700;SDS011;1866;48.374;10.766;2023-01-15T06:11:26;98.40;;;5.00;;
3700;SDS011;1866;48.374;10.766;2023-01-15T06:13:55;97.80;;;4.80;;
3700;SDS011;1866;48.374;10.766;2023-01-15T06:16:21;98.00;;;4.93;;
3700;SDS011;1866;48.374;10.766;2023-01-15T06:18:48;98.30;;;5.07;;
3700;SDS011;1866;48.374;10.766;2023-01-15T06:21:15;99.20;;;4.90;;
3700;SDS011;1866;48.374;10.766;2023-01-15T06:23:43;98.03;;;4.90;;
3700;SDS011;1866;48.374;10.766;2023-01-15T06:26:10;98.67;;;5.00;;
3700;SDS011;1866;48.374;10.766;2023-01-15T06:28:38;98.17;;;5.03;;
3700;SDS011;1866;48.374;10.766;2023-01-15T06:31:08;97.80;;;4.87;;
3700;SDS011;1866;48.374;10.766;2023-01-15T06:33:36;98.30;;;5.00;;
3700;SDS011;1866;48.374;10.766;2023-01-15T06:36:03;98.30;;;4.87;;
3700;SDS011;1866;48.374;10.766;2023-01-15T06:38:31;98.47;;;4.77;;
3700;SDS011;1866;48.374;10.766;2023-01-15T06:40:58;98.27;;;5.03;;
3700;SDS011;1866;48.374;10.766;2023-01-15T06:43:26;97.90;;;4.83;;
3700;SDS011;1866;48.374;10.766;2023-01-15T06:46:11;98.27;;;4.93;;
3700;SDS011;1866;48.374;10.766;2023-01-15T06:48:56;98.00;;;5.00;;
3700;SDS011;1866;48.374;10.766;2023-01-15T06:51:23;98.30;;;4.87;;
3700;SDS011;1866;48.374;10.766;2023-01-15T06:53:50;98.30;;;5.03;;
3700;SDS011;1866;48.374;10.766;2023-01-15T06:56:17;98.87;;;5.10;;
3700;SDS011;1866;48.374;10.766;2023-01-15T06:58:44;98.27;;;5.07;;
3700;SDS011;1866;48.374;10.766;2023-01-15T07:01:13;98.00;;;5.07;;
3700;SDS011;1866;48.374;10.766;2023-01-15T07:03:40;101.40;;;5.43;;
3700;SDS011;1866;48.374;10.766;2023-01-15T07:06:08;98.47;;;5.30;;
3700;SDS011;1866;48.374;10.766;2023-01-15T07:08:36;101.00;;;5.40;;
3700;SDS011;1866;48.374;10.766;2023-01-15T07:11:04;98.00;;;5.07;;
3700;SDS011;1866;48.374;10.766;2023-01-15T07:13:32;98.27;;;5.20;;
3700;SDS011;1866;48.374;10.766;2023-01-15T07:15:59;98.40;;;5.30;;
3700;SDS011;1866;48.374;10.766;2023-01-15T07:18:28;98.00;;;5.07;;
3700;SDS011;1866;48.374;10.766;2023-01-15T07:20:57;98.50;;;5.13;;
3700;SDS011;1866;48.374;10.766;2023-01-15T07:23:24;98.07;;;4.97;;
3700;SDS011;1866;48.374;10.766;2023-01-15T07:25:52;98.27;;;5.10;;
3700;SDS011;1866;48.374;10.766;2023-01-15T07:28:20;99.17;;;5.27;;
3700;SDS011;1866;48.374;10.766;2023-01-15T07:30:48;99.90;;;5.40;;
3700;SDS011;1866;48.374;10.766;2023-01-15T07:33:14;98.97;;;5.20;;
3700;SDS011;1866;48.374;10.766;2023-01-15T07:35:43;98.87;;;5.67;;
3700;SDS011;1866;48.374;10.766;2023-01-15T07:38:10;98.90;;;5.63;;
3700;SDS011;1866;48.374;10.766;2023-01-15T07:40:36;99.47;;;5.67;;
3700;SDS011;1866;48.374;10.766;2023-01-15T07:43:03;99.07;;;5.63;;
3700;SDS011;1866;48.374;10.766;2023-01-15T07:45:47;104.20;;;6.60;;
3700;SDS011;1866;48.374;10.766;2023-01-15T07:48:32;98.57;;;5.80;;
3700;SDS011;1866;48.374;10.766;2023-01-15T07:51:18;100.27;;;6.77;;
3700;SDS011;1866;48.374;10.766;2023-01-15T07:53:45;103.30;;;6.60;;
3700;SDS011;1866;48.374;10.766;2023-01-15T07:56:12;100.77;;;6.63;;
3700;SDS011;1866;48.374;10.766;2023-01-15T07:58:39;100.60;;;6.93;;
3700;SDS011;1866;48.374;10.766;2023-01-15T08:01:06;98.47;;;5.70;;
3700;SDS011;1866;48.374;10.766;2023-01-15T08:03:34;98.10;;;5.50;;
3700;SDS011;1866;48.374;10.766;2023-01-15T08:06:00;98.10;;;5.53;;
3700;SDS011;1866;48.374;10.766;2023-01-15T08:08:29;98.40;;;5.60;;
3700;SDS011;1866;48.374;10.766;2023-01-15T08:11:00;97.93;;;5.37;;
3700;SDS011;1866;48.374;10.766;2023-01-15T08:13:44;98.10;;;5.57;;
3700;SDS011;1866;48.374;10.766;2023-01-15T08:16:28;98.03;;;5.50;;
3700;SDS011;1866;48.374;10.766;2023-01-15T08:18:55;98.00;;;5.43;;
3700;SDS011;1866;48.374;10.766;2023-01-15T08:21:22;99.17;;;5.57;;
3700;SDS011;1866;48.374;10.766;2023-01-15T08:23:50;99.07;;;5.50;;
3700;SDS011;1866;48.374;10.766;2023-01-15T08:26:17;103.57;;;7.30;;
3700;SDS011;1866;48.374;10.766;2023-01-15T08:28:43;100.30;;;6.73;;
3700;SDS011;1866;48.374;10.766;2023-01-15T08:31:10;97.97;;;5.63;;
3700;SDS011;1866;48.374;10.766;2023-01-15T08:33:37;98.47;;;5.70;;
3700;SDS011;1866;48.374;10.766;2023-01-15T08:36:04;98.30;;;5.23;;
3700;SDS011;1866;48.374;10.766;2023-01-15T08:38:32;99.37;;;5.67;;
3700;SDS011;1866;48.374;10.766;2023-01-15T08:41:01;100.20;;;6.03;;
3700;SDS011;1866;48.374;10.766;2023-01-15T08:43:28;99.17;;;5.33;;
3700;SDS011;1866;48.374;10.766;2023-01-15T08:45:57;100.50;;;6.07;;
3700;SDS011;1866;48.374;10.766;2023-01-15T08:48:24;98.63;;;5.80;;
3700;SDS011;1866;48.374;10.766;2023-01-15T08:50:51;101.87;;;5.90;;
3700;SDS011;1866;48.374;10.766;2023-01-15T08:53:19;110.93;;;8.20;;
3700;SDS011;1866;48.374;10.766;2023-01-15T08:55:46;98.47;;;5.50;;
3700;SDS011;1866;48.374;10.766;2023-01-15T08:58:15;98.87;;;5.80;;
3700;SDS011;1866;48.374;10.766;2023-01-15T09:00:42;100.63;;;5.63;;
3700;SDS011;1866;48.374;10.766;2023-01-15T09:03:09;101.10;;;7.37;;
3700;SDS011;1866;48.374;10.766;2023-01-15T09:05:36;99.03;;;6.33;;
3700;SDS011;1866;48.374;10.766;2023-01-15T09:08:03;96.30;;;5.53;;
3700;SDS011;1866;48.374;10.766;2023-01-15T09:10:32;96.27;;;5.87;;
3700;SDS011;1866;48.374;10.766;2023-01-15T09:12:59;95.73;;;6.00;;
3700;SDS011;1866;48.374;10.766;2023-01-15T09:15:32;95.67;;;6.17;;
3700;SDS011;1866;48.374;10.766;2023-01-15T09:18:00;97.07;;;7.20;;
3700;SDS011;1866;48.374;10.766;2023-01-15T09:20:28;96.20;;;7.13;;
3700;SDS011;1866;48.374;10.766;2023-01-15T09:22:57;98.17;;;8.20;;
3700;SDS011;1866;48.374;10.766;2023-01-15T09:25:24;100.60;;;9.20;;
3700;SDS011;1866;48.374;10.766;2023-01-15T09:27:53;98.77;;;8.90;;
3700;SDS011;1866;48.374;10.766;2023-01-15T09:30:23;95.77;;;7.80;;
3700;SDS011;1866;48.374;10.766;2023-01-15T09:32:53;96.63;;;8.50;;
3700;SDS011;1866;48.374;10.766;2023-01-15T09:35:19;96.40;;;8.40;;
3700;SDS011;1866;48.374;10.766;2023-01-15T09:37:49;97.87;;;9.27;;
3700;SDS011;1866;48.374;10.766;2023-01-15T09:40:20;94.40;;;7.70;;
3700;SDS011;1866;48.374;10.766;2023-01-15T09:43:01;97.67;;;9.07;;
3700;SDS011;1866;48.374;10.766;2023-01-15T09:45:34;94.70;;;8.10;;
3700;SDS011;1866;48.374;10.766;2023-01-15T09:48:14;95.77;;;8.83;;
3700;SDS011;1866;48.374;10.766;2023-01-15T09:50:53;94.63;;;7.60;;
3700;SDS011;1866;48.374;10.766;2023-01-15T09:53:38;96.57;;;8.03;;
3700;SDS011;1866;48.374;10.766;2023-01-15T09:56:20;94.50;;;7.53;;
3700;SDS011;1866;48.374;10.766;2023-01-15T09:58:50;94.60;;;8.00;;
3700;SDS011;1866;48.374;10.766;2023-01-15T10:01:23;95.37;;;8.17;;
3700;SDS011;1866;48.374;10.766;2023-01-15T10:03:55;94.37;;;7.77;;
3700;SDS011;1866;48.374;10.766;2023-01-15T10:06:27;96.87;;;8.43;;
3700;SDS011;1866;48.374;10.766;2023-01-15T10:08:58;96.43;;;8.90;;
3700;SDS011;1866;48.374;10.766;2023-01-15T10:11:35;96.33;;;8.30;;
3700;SDS011;1866;48.374;10.766;2023-01-15T10:14:38;96.07;;;8.40;;
3700;SDS011;1866;48.374;10.766;2023-01-15T10:17:18;95.10;;;7.97;;
3700;SDS011;1866;48.374;10.766;2023-01-15T10:19:55;108.50;;;13.30;;
3700;SDS011;1866;48.374;10.766;2023-01-15T10:22:38;102.73;;;10.77;;
3700;SDS011;1866;48.374;10.766;2023-01-15T10:25:21;95.60;;;8.70;;
3700;SDS011;1866;48.374;10.766;2023-01-15T10:27:53;95.50;;;9.00;;
3700;SDS011;1866;48.374;10.766;2023-01-15T10:30:31;94.50;;;8.20;;
3700;SDS011;1866;48.374;10.766;2023-01-15T10:33:10;95.50;;;9.23;;
3700;SDS011;1866;48.374;10.766;2023-01-15T10:35:56;97.33;;;9.67;;
3700;SDS011;1866;48.374;10.766;2023-01-15T10:38:27;94.30;;;8.77;;
3700;SDS011;1866;48.374;10.766;2023-01-15T10:41:05;94.93;;;9.13;;
3700;SDS011;1866;48.374;10.766;2023-01-15T10:43:47;94.90;;;8.90;;
3700;SDS011;1866;48.374;10.766;2023-01-15T10:46:21;95.27;;;9.30;;
3700;SDS011;1866;48.374;10.766;2023-01-15T10:48:55;96.00;;;8.93;;
3700;SDS011;1866;48.374;10.766;2023-01-15T10:51:26;96.40;;;9.30;;
3700;SDS011;1866;48.374;10.766;2023-01-15T10:53:56;96.30;;;10.10;;
3700;SDS011;1866;48.374;10.766;2023-01-15T10:56:30;96.90;;;9.70;;
3700;SDS011;1866;48.374;10.766;2023-01-15T10:59:10;94.97;;;8.87;;
3700;SDS011;1866;48.374;10.766;2023-01-15T11:01:46;104.60;;;12.43;;
3700;SDS011;1866;48.374;10.766;2023-01-15T11:04:17;103.30;;;10.60;;
3700;SDS011;1866;48.374;10.766;2023-01-15T11:06:52;98.33;;;9.37;;
3700;SDS011;1866;48.374;10.766;2023-01-15T11:09:26;98.17;;;10.80;;
3700;SDS011;1866;48.374;10.766;2023-01-15T11:12:02;96.10;;;9.33;;
3700;SDS011;1866;48.374;10.766;2023-01-15T11:15:01;97.97;;;9.70;;
3700;SDS011;1866;48.374;10.766;2023-01-15T11:17:59;97.50;;;9.87;;
3700;SDS011;1866;48.374;10.766;2023-01-15T11:20:48;95.90;;;9.37;;
3700;SDS011;1866;48.374;10.766;2023-01-15T11:23:18;95.07;;;9.80;;
3700;SDS011;1866;48.374;10.766;2023-01-15T11:25:49;95.70;;;9.77;;
3700;SDS011;1866;48.374;10.766;2023-01-15T11:28:28;95.93;;;9.33;;
3700;SDS011;1866;48.374;10.766;2023-01-15T11:30:59;95.97;;;9.50;;
3700;SDS011;1866;48.374;10.766;2023-01-15T11:33:28;96.10;;;9.60;;
3700;SDS011;1866;48.374;10.766;2023-01-15T11:35:58;96.07;;;9.10;;
3700;SDS011;1866;48.374;10.766;2023-01-15T11:38:28;95.50;;;8.80;;
3700;SDS011;1866;48.374;10.766;2023-01-15T11:41:15;95.70;;;8.47;;
3700;SDS011;1866;48.374;10.766;2023-01-15T11:43:52;96.10;;;8.67;;
3700;SDS011;1866;48.374;10.766;2023-01-15T11:46:37;96.37;;;8.67;;
3700;SDS011;1866;48.374;10.766;2023-01-15T11:49:23;96.20;;;8.80;;
3700;SDS011;1866;48.374;10.766;2023-01-15T11:52:10;96.60;;;8.77;;
3700;SDS011;1866;48.374;10.766;2023-01-15T11:54:49;96.27;;;8.43;;
3700;SDS011;1866;48.374;10.766;2023-01-15T11:57:22;97.77;;;9.50;;
3700;SDS011;1866;48.374;10.766;2023-01-15T11:59:51;95.80;;;8.40;;
3700;SDS011;1866;48.374;10.766;2023-01-15T12:02:21;96.60;;;8.57;;
3700;SDS011;1866;48.374;10.766;2023-01-15T12:04:58;96.37;;;9.00;;
3700;SDS011;1866;48.374;10.766;2023-01-15T12:07:29;95.47;;;8.47;;
3700;SDS011;1866;48.374;10.766;2023-01-15T12:10:02;96.30;;;8.90;;
3700;SDS011;1866;48.374;10.766;2023-01-15T12:12:51;96.47;;;8.93;;
3700;SDS011;1866;48.374;10.766;2023-01-15T12:15:30;96.33;;;9.00;;
3700;SDS011;1866;48.374;10.766;2023-01-15T12:18:07;95.60;;;8.67;;
3700;SDS011;1866;48.374;10.766;2023-01-15T12:21:02;96.90;;;9.10;;
3700;SDS011;1866;48.374;10.766;2023-01-15T12:23:43;96.27;;;8.97;;
3700;SDS011;1866;48.374;10.766;2023-01-15T12:26:33;95.77;;;8.93;;
3700;SDS011;1866;48.374;10.766;2023-01-15T12:29:05;95.90;;;9.03;;
3700;SDS011;1866;48.374;10.766;2023-01-15T12:31:42;95.80;;;9.10;;
3700;SDS011;1866;48.374;10.766;2023-01-15T12:34:15;96.40;;;9.07;;
3700;SDS011;1866;48.374;10.766;2023-01-15T12:36:52;97.47;;;9.43;;
3700;SDS011;1866;48.374;10.766;2023-01-15T12:39:24;95.40;;;8.57;;
3700;SDS011;1866;48.374;10.766;2023-01-15T12:41:57;95.47;;;8.57;;
3700;SDS011;1866;48.374;10.766;2023-01-15T12:44:46;95.83;;;8.97;;
3700;SDS011;1866;48.374;10.766;2023-01-15T12:47:30;95.90;;;8.97;;
3700;SDS011;1866;48.374;10.766;2023-01-15T12:50:10;95.50;;;9.43;;
3700;SDS011;1866;48.374;10.766;2023-01-15T12:52:57;95.00;;;8.97;;
3700;SDS011;1866;48.374;10.766;2023-01-15T12:55:30;95.47;;;9.37;;
3700;SDS011;1866;48.374;10.766;2023-01-15T12:58:09;95.50;;;9.50;;
3700;SDS011;1866;48.374;10.766;2023-01-15T13:00:49;95.37;;;9.00;;
3700;SDS011;1866;48.374;10.766;2023-01-15T13:03:22;96.50;;;9.70;;
3700;SDS011;1866;48.374;10.766;2023-01-15T13:05:56;94.40;;;8.70;;
3700;SDS011;1866;48.374;10.766;2023-01-15T13:08:26;94.50;;;8.47;;
3700;SDS011;1866;48.374;10.766;2023-01-15T13:10:59;95.20;;;8.73;;
3700;SDS011;1866;48.374;10.766;2023-01-15T13:13:33;95.03;;;8.63;;
3700;SDS011;1866;48.374;10.766;2023-01-15T13:16:08;95.63;;;9.33;;
3700;SDS011;1866;48.374;10.766;2023-01-15T13:18:46;95.47;;;9.00;;
3700;SDS011;1866;48.374;10.766;2023-01-15T13:21:23;95.80;;;9.43;;
3700;SDS011;1866;48.374;10.766;2023-01-15T13:24:01;94.67;;;9.10;;
3700;SDS011;1866;48.374;10.766;2023-01-15T13:26:52;94.97;;;8.87;;
3700;SDS011;1866;48.374;10.766;2023-01-15T13:29:36;96.00;;;9.60;;
3700;SDS011;1866;48.374;10.766;2023-01-15T13:32:10;95.87;;;9.77;;
3700;SDS011;1866;48.374;10.766;2023-01-15T13:34:44;96.70;;;9.80;;
3700;SDS011;1866;48.374;10.766;2023-01-15T13:37:19;95.50;;;8.93;;
3700;SDS011;1866;48.374;10.766;2023-01-15T13:39:50;96.30;;;9.00;;
3700;SDS011;1866;48.374;10.766;2023-01-15T13:42:20;97.07;;;9.00;;
3700;SDS011;1866;48.374;10.766;2023-01-15T13:44:59;96.60;;;9.70;;
3700;SDS011;1866;48.374;10.766;2023-01-15T13:47:34;96.07;;;9.30;;
3700;SDS011;1866;48.374;10.766;2023-01-15T13:50:11;94.87;;;8.60;;
3700;SDS011;1866;48.374;10.766;2023-01-15T13:52:47;94.30;;;7.67;;
3700;SDS011;1866;48.374;10.766;2023-01-15T13:55:22;93.17;;;7.27;;
3700;SDS011;1866;48.374;10.766;2023-01-15T13:57:54;94.37;;;7.53;;
3700;SDS011;1866;48.374;10.766;2023-01-15T14:00:28;93.70;;;7.67;;
3700;SDS011;1866;48.374;10.766;2023-01-15T14:05:52;95.80;;;8.82;;
3700;SDS011;1866;48.374;10.766;2023-01-15T14:08:23;94.90;;;8.70;;
3700;SDS011;1866;48.374;10.766;2023-01-15T14:10:52;96.43;;;9.23;;
3700;SDS011;1866;48.374;10.766;2023-01-15T14:16:37;95.07;;;8.80;;
3700;SDS011;1866;48.374;10.766;2023-01-15T14:19:25;93.97;;;9.00;;
3700;SDS011;1866;48.374;10.766;2023-01-15T14:22:12;96.85;;;9.65;;
3700;SDS011;1866;48.374;10.766;2023-01-15T14:25:14;95.07;;;9.60;;
3700;SDS011;1866;48.374;10.766;2023-01-15T14:27:51;100.60;;;12.20;;
3700;SDS011;1866;48.374;10.766;2023-01-15T14:30:33;97.75;;;11.15;;
3700;SDS011;1866;48.374;10.766;2023-01-15T14:33:17;95.88;;;10.93;;
3700;SDS011;1866;48.374;10.766;2023-01-15T14:35:53;101.63;;;11.50;;
3700;SDS011;1866;48.374;10.766;2023-01-15T14:38:23;97.97;;;11.50;;
3700;SDS011;1866;48.374;10.766;2023-01-15T14:40:54;97.85;;;11.55;;
3700;SDS011;1866;48.374;10.766;2023-01-15T14:43:25;97.63;;;11.07;;
3700;SDS011;1866;48.374;10.766;2023-01-15T14:45:52;97.50;;;11.77;;
3700;SDS011;1866;48.374;10.766;2023-01-15T14:48:34;98.57;;;11.47;;
3700;SDS011;1866;48.374;10.766;2023-01-15T14:51:07;99.57;;;12.10;;
3700;SDS011;1866;48.374;10.766;2023-01-15T14:53:38;100.33;;;12.60;;
3700;SDS011;1866;48.374;10.766;2023-01-15T14:56:15;101.05;;;12.35;;
3700;SDS011;1866;48.374;10.766;2023-01-15T14:58:56;99.13;;;11.73;;
3700;SDS011;1866;48.374;10.766;2023-01-15T15:01:36;98.10;;;11.77;;
3700;SDS011;1866;48.374;10.766;2023-01-15T15:04:22;97.87;;;11.37;;
3700;SDS011;1866;48.374;10.766;2023-01-15T15:07:09;102.37;;;12.00;;
3700;SDS011;1866;48.374;10.766;2023-01-15T15:09:38;99.00;;;11.10;;
3700;SDS011;1866;48.374;10.766;2023-01-15T15:12:16;98.73;;;11.30;;
3700;SDS011;1866;48.374;10.766;2023-01-15T15:14:52;98.63;;;11.27;;
3700;SDS011;1866;48.374;10.766;2023-01-15T15:17:29;98.10;;;11.50;;
3700;SDS011;1866;48.374;10.766;2023-01-15T15:20:06;98.00;;;11.47;;
3700;SDS011;1866;48.374;10.766;2023-01-15T15:22:52;99.40;;;11.50;;